createdAt,value
2019-01-21T00:02:27.239Z,43.77
2019-01-21T00:04:57.086Z,38.80
2019-01-21T00:07:28.073Z,41.00
2019-01-21T00:09:59.523Z,42.63
2019-01-21T00:12:29.300Z,39.93
2019-01-21T00:15:00.740Z,43.37
2019-01-21T00:17:33.480Z,41.37
2019-01-21T00:20:03.683Z,40.20
2019-01-21T00:22:33.459Z,39.17
2019-01-21T00:25:03.178Z,40.60
2019-01-21T00:27:32.919Z,42.67
2019-01-21T00:30:02.563Z,39.03
2019-01-21T00:32:32.280Z,43.00
2019-01-21T00:35:02.013Z,40.50
2019-01-21T00:37:31.833Z,37.97
2019-01-21T00:40:02.047Z,40.77
2019-01-21T00:42:31.910Z,40.23
2019-01-21T00:45:01.721Z,40.53
2019-01-21T00:47:31.534Z,40.87
2019-01-21T00:50:01.399Z,41.33
2019-01-21T00:52:31.339Z,40.03
2019-01-21T00:55:01.159Z,41.40
2019-01-21T00:57:30.984Z,40.53
2019-01-21T01:00:00.706Z,37.13
2019-01-21T01:02:31.594Z,37.97
2019-01-21T01:05:01.417Z,36.57
2019-01-21T01:07:36.415Z,39.90
2019-01-21T01:10:10.066Z,37.93
2019-01-21T01:12:39.980Z,38.93
2019-01-21T01:15:11.990Z,35.90
2019-01-21T01:17:41.849Z,39.30
2019-01-21T01:20:14.745Z,39.13
2019-01-21T01:22:44.567Z,41.33
2019-01-21T01:25:14.465Z,38.73
2019-01-21T01:27:44.375Z,44.07
2019-01-21T01:30:16.382Z,40.87
2019-01-21T01:32:46.189Z,42.33
2019-01-21T01:35:17.310Z,41.40
2019-01-21T01:37:47.102Z,39.53
2019-01-21T01:40:18.210Z,42.50
2019-01-21T01:42:47.957Z,43.73
2019-01-21T01:45:21.337Z,40.50
2019-01-21T01:47:54.848Z,41.87
2019-01-21T01:50:24.637Z,39.93
2019-01-21T01:52:54.467Z,40.47
2019-01-21T01:55:25.099Z,43.60
2019-01-21T01:57:56.051Z,38.90
2019-01-21T02:00:27.191Z,42.23
2019-01-21T02:02:58.154Z,41.27
2019-01-21T02:05:28.554Z,39.03
2019-01-21T02:07:58.354Z,38.57
2019-01-21T02:10:28.129Z,41.73
2019-01-21T02:13:01.190Z,43.90
2019-01-21T02:15:30.979Z,41.63
2019-01-21T02:18:00.833Z,40.33
2019-01-21T02:20:30.657Z,40.93
2019-01-21T02:23:02.773Z,41.43
2019-01-21T02:25:37.004Z,39.67
2019-01-21T02:28:27.084Z,40.97
2019-01-21T02:31:14.594Z,40.57
2019-01-21T02:34:04.108Z,42.03
2019-01-21T02:36:56.849Z,41.63
2019-01-21T02:39:46.429Z,44.27
2019-01-21T02:42:33.211Z,43.63
2019-01-21T02:45:20.877Z,41.37
2019-01-21T02:48:01.293Z,41.37
2019-01-21T02:50:40.145Z,44.67
2019-01-21T02:53:23.891Z,42.90
2019-01-21T02:56:09.623Z,42.57
2019-01-21T02:59:02.271Z,40.10
2019-01-21T03:01:53.324Z,41.07
2019-01-21T03:04:29.119Z,39.60
2019-01-21T03:07:11.128Z,40.50
2019-01-21T03:09:52.584Z,44.37
2019-01-21T03:12:43.268Z,43.07
2019-01-21T03:15:29.355Z,43.00
2019-01-21T03:18:28.770Z,42.33
2019-01-21T03:21:34.374Z,45.03
2019-01-21T03:24:33.667Z,43.83
2019-01-21T03:27:16.441Z,42.27
2019-01-21T03:30:06.774Z,42.50
2019-01-21T03:33:11.376Z,45.17
2019-01-21T03:35:51.680Z,40.97
2019-01-21T03:38:59.253Z,44.30
2019-01-21T03:41:34.396Z,42.77
2019-01-21T03:44:17.839Z,44.97
2019-01-21T03:47:07.142Z,43.27
2019-01-21T03:49:42.562Z,42.13
2019-01-21T03:52:38.915Z,40.60
2019-01-21T03:55:11.928Z,41.60
2019-01-21T03:58:05.636Z,42.17
2019-01-21T04:00:42.505Z,47.60
2019-01-21T04:03:46.689Z,51.67
2019-01-21T04:06:25.263Z,46.70
2019-01-21T04:09:21.138Z,41.17
2019-01-21T04:12:16.361Z,42.83
2019-01-21T04:15:27.674Z,44.83
2019-01-21T04:18:38.455Z,46.57
2019-01-21T04:21:42.794Z,46.57
2019-01-21T04:24:16.313Z,44.90
2019-01-21T04:27:03.452Z,44.70
2019-01-21T04:29:59.919Z,44.53
2019-01-21T04:32:33.619Z,42.23
2019-01-21T04:35:06.333Z,43.80
2019-01-21T04:38:00.114Z,42.60
2019-01-21T04:40:45.923Z,44.33
2019-01-21T04:43:42.958Z,40.87
2019-01-21T04:46:27.260Z,41.47
2019-01-21T04:49:19.490Z,44.80
2019-01-21T04:52:10.482Z,40.43
2019-01-21T04:55:10.108Z,43.33
2019-01-21T04:57:58.189Z,41.50
2019-01-21T05:00:34.326Z,42.40
2019-01-21T05:03:26.766Z,40.43
2019-01-21T05:05:59.629Z,40.67
2019-01-21T05:08:38.281Z,39.63
2019-01-21T05:11:25.201Z,40.93
2019-01-21T05:14:05.447Z,46.87
2019-01-21T05:16:50.930Z,70.77
2019-01-21T05:19:30.582Z,43.40
2019-01-21T05:22:27.191Z,40.43
2019-01-21T05:25:12.803Z,39.87
2019-01-21T05:28:02.085Z,39.20
2019-01-21T05:30:52.780Z,42.67
2019-01-21T05:33:40.825Z,41.67
2019-01-21T05:36:31.086Z,41.60
2019-01-21T05:39:06.607Z,39.23
2019-01-21T05:41:59.960Z,40.93
2019-01-21T05:44:35.676Z,42.67
2019-01-21T05:47:25.713Z,41.93
2019-01-21T05:50:08.826Z,43.53
2019-01-21T05:56:36.342Z,39.90
2019-01-21T05:59:28.359Z,40.53
2019-01-21T06:02:26.873Z,45.53
2019-01-21T06:05:25.175Z,47.50
2019-01-21T06:08:18.371Z,42.17
2019-01-21T06:11:24.701Z,44.10
2019-01-21T06:14:26.424Z,41.23
2019-01-21T06:17:34.342Z,48.33
2019-01-21T06:20:31.960Z,40.20
2019-01-21T06:23:14.032Z,41.07
2019-01-21T06:26:16.778Z,42.60
2019-01-21T06:29:08.033Z,40.63
2019-01-21T06:31:56.784Z,45.60
2019-01-21T06:35:03.935Z,44.27
2019-01-21T06:37:53.189Z,41.60
2019-01-21T06:40:45.856Z,43.33
2019-01-21T06:47:17.224Z,41.37
2019-01-21T06:50:13.258Z,42.60
2019-01-21T06:53:16.636Z,44.97
2019-01-21T06:56:32.352Z,42.30
2019-01-21T07:00:07.399Z,56.73
2019-01-21T07:03:20.440Z,52.63
2019-01-21T07:06:03.929Z,48.63
2019-01-21T07:09:03.364Z,45.47
2019-01-21T07:11:49.466Z,42.47
2019-01-21T07:14:22.321Z,40.57
2019-01-21T07:17:24.380Z,44.10
2019-01-21T07:20:17.856Z,37.67
2019-01-21T07:23:17.830Z,43.67
2019-01-21T07:26:13.295Z,41.37
2019-01-21T07:28:57.802Z,43.20
2019-01-21T07:31:52.418Z,42.17
2019-01-21T07:34:44.430Z,42.17
2019-01-21T07:37:24.586Z,44.97
2019-01-21T07:40:19.806Z,47.33
2019-01-21T07:43:11.383Z,44.43
2019-01-21T07:45:56.552Z,45.77
2019-01-21T07:48:42.234Z,44.67
2019-01-21T07:51:34.828Z,43.30
2019-01-21T07:54:34.368Z,45.13
2019-01-21T07:57:38.214Z,46.67
2019-01-21T08:00:21.340Z,46.03
2019-01-21T08:03:07.014Z,45.53
2019-01-21T08:05:52.809Z,46.73
2019-01-21T08:08:50.481Z,47.47
2019-01-21T08:11:35.477Z,43.00
2019-01-21T08:14:23.646Z,43.60
2019-01-21T08:17:09.387Z,43.80
2019-01-21T08:20:11.613Z,43.17
2019-01-21T08:23:08.399Z,40.30
2019-01-21T08:26:11.421Z,92.77
2019-01-21T08:29:09.447Z,44.20
2019-01-21T08:31:45.179Z,44.50
2019-01-21T08:34:49.226Z,43.33
2019-01-21T08:37:39.403Z,48.70
2019-01-21T08:40:39.580Z,43.93
2019-01-21T08:43:42.522Z,43.33
2019-01-21T08:46:47.099Z,44.53
2019-01-21T08:49:36.459Z,46.57
2019-01-21T08:52:51.985Z,44.47
2019-01-21T08:55:29.840Z,44.27
2019-01-21T08:58:33.323Z,44.77
2019-01-21T09:01:37.439Z,49.00
2019-01-21T09:04:46.381Z,48.10
2019-01-21T09:07:41.920Z,45.77
2019-01-21T09:10:25.138Z,45.77
2019-01-21T09:13:06.326Z,48.17
2019-01-21T09:16:09.228Z,47.50
2019-01-21T09:18:54.426Z,47.67
2019-01-21T09:21:39.430Z,43.10
2019-01-21T09:24:28.943Z,45.90
2019-01-21T09:27:26.752Z,46.40
2019-01-21T09:30:22.612Z,48.13
2019-01-21T09:33:13.527Z,43.67
2019-01-21T09:36:27.589Z,48.53
2019-01-21T09:39:11.401Z,48.80
2019-01-21T09:41:59.261Z,48.93
2019-01-21T09:44:33.727Z,41.37
2019-01-21T09:47:02.524Z,44.10
2019-01-21T09:49:31.183Z,48.80
2019-01-21T09:52:06.776Z,47.73
2019-01-21T09:54:36.808Z,45.27
2019-01-21T09:57:06.654Z,46.00
2019-01-21T09:59:36.475Z,45.83
2019-01-21T10:02:07.197Z,46.33
2019-01-21T10:04:40.204Z,47.00
2019-01-21T10:07:18.549Z,46.03
2019-01-21T10:10:06.486Z,44.27
2019-01-21T10:13:14.949Z,44.00
2019-01-21T10:15:52.059Z,47.67
2019-01-21T10:18:51.829Z,44.00
2019-01-21T10:21:31.899Z,48.27
2019-01-21T10:24:40.309Z,48.07
2019-01-21T10:27:19.939Z,47.77
2019-01-21T10:29:59.692Z,46.77
2019-01-21T10:32:35.504Z,44.20
2019-01-21T10:35:08.539Z,50.20
2019-01-21T10:37:50.018Z,48.57
2019-01-21T10:40:26.825Z,49.40
2019-01-21T10:43:24.013Z,49.47
2019-01-21T10:46:05.519Z,49.87
2019-01-21T10:48:40.846Z,53.83
2019-01-21T10:51:40.849Z,55.57
2019-01-21T10:54:20.936Z,50.07
2019-01-21T10:56:56.548Z,52.43
2019-01-21T10:59:30.293Z,52.53
2019-01-21T11:02:32.786Z,49.07
2019-01-21T11:05:21.471Z,53.70
2019-01-21T11:08:06.005Z,80.37
2019-01-21T11:10:57.990Z,66.60
2019-01-21T11:14:00.825Z,49.57
2019-01-21T11:16:36.330Z,51.07
2019-01-21T11:19:41.508Z,51.23
2019-01-21T11:22:20.226Z,50.50
2019-01-21T11:25:18.620Z,51.37
2019-01-21T11:27:52.946Z,50.93
2019-01-21T11:30:35.833Z,50.13
2019-01-21T11:33:22.607Z,52.13
2019-01-21T11:36:16.081Z,52.60
2019-01-21T11:38:54.912Z,54.77
2019-01-21T11:41:29.503Z,50.80
2019-01-21T11:44:21.638Z,56.93
2019-01-21T11:47:06.828Z,46.97
2019-01-21T11:49:44.245Z,51.83
2019-01-21T11:52:41.672Z,51.00
2019-01-21T11:55:25.706Z,50.80
2019-01-21T11:58:31.787Z,51.40
2019-01-21T12:01:33.224Z,49.97
2019-01-21T12:04:19.754Z,52.63
2019-01-21T12:07:10.221Z,47.77
2019-01-21T12:09:59.280Z,44.77
2019-01-21T12:12:34.481Z,48.20
2019-01-21T12:15:26.882Z,45.80
2019-01-21T12:18:03.753Z,46.10
2019-01-21T12:20:59.102Z,47.93
2019-01-21T12:23:40.640Z,44.43
2019-01-21T12:26:26.659Z,47.73
2019-01-21T12:29:17.362Z,46.77
2019-01-21T12:32:11.779Z,46.13
2019-01-21T12:34:59.635Z,43.50
2019-01-21T12:37:44.045Z,44.73
2019-01-21T12:40:22.690Z,43.60
2019-01-21T12:43:05.659Z,43.07
2019-01-21T12:45:44.294Z,43.03
2019-01-21T12:48:23.524Z,39.00
2019-01-21T12:51:19.026Z,36.80
2019-01-21T12:54:09.092Z,38.00
2019-01-21T12:56:48.496Z,38.93
2019-01-21T12:59:43.727Z,36.03
2019-01-21T13:02:30.818Z,37.47
2019-01-21T13:05:12.681Z,37.57
2019-01-21T13:07:52.556Z,38.70
2019-01-21T13:10:48.056Z,28.07
2019-01-21T13:13:31.486Z,29.60
2019-01-21T13:16:22.306Z,32.33
2019-01-21T13:19:11.958Z,30.70
2019-01-21T13:22:19.686Z,33.57
2019-01-21T13:25:13.105Z,26.67
2019-01-21T13:27:56.036Z,28.63
2019-01-21T13:30:59.440Z,31.57
2019-01-21T13:33:54.840Z,30.77
2019-01-21T13:36:46.876Z,41.83
2019-01-21T13:39:32.747Z,39.87
2019-01-21T13:42:09.319Z,41.87
2019-01-21T13:44:42.177Z,41.73
2019-01-21T13:47:30.886Z,42.13
2019-01-21T13:50:03.710Z,41.07
2019-01-21T13:52:56.869Z,43.97
2019-01-21T13:55:36.078Z,39.70
2019-01-21T13:58:22.219Z,34.07
2019-01-21T14:01:11.231Z,36.30
2019-01-21T14:03:56.380Z,34.27
2019-01-21T14:06:29.279Z,35.23
2019-01-21T14:09:16.555Z,33.93
2019-01-21T14:12:11.403Z,37.10
2019-01-21T14:14:54.733Z,34.33
2019-01-21T14:17:30.075Z,38.23
2019-01-21T14:20:02.995Z,36.03
2019-01-21T14:22:46.193Z,38.97
2019-01-21T14:25:24.935Z,34.43
2019-01-21T14:28:03.692Z,36.67
2019-01-21T14:30:50.303Z,36.83
2019-01-21T14:33:32.219Z,38.87
2019-01-21T14:36:17.467Z,37.27
2019-01-21T14:38:58.559Z,38.33
2019-01-21T14:41:45.222Z,35.33
2019-01-21T14:44:51.089Z,34.03
2019-01-21T14:47:26.649Z,37.57
2019-01-21T14:50:18.882Z,37.47
2019-01-21T14:53:18.220Z,36.07
2019-01-21T14:55:53.724Z,38.53
2019-01-21T14:58:56.728Z,37.57
2019-01-21T15:01:41.939Z,34.97
2019-01-21T15:04:27.562Z,39.17
2019-01-21T15:07:06.259Z,36.37
2019-01-21T15:10:06.303Z,36.63
2019-01-21T15:12:44.074Z,36.20
2019-01-21T15:15:43.534Z,32.73
2019-01-21T15:18:28.406Z,40.40
2019-01-21T15:21:16.658Z,35.43
2019-01-21T15:24:02.501Z,38.47
2019-01-21T15:26:39.918Z,37.53
2019-01-21T15:29:37.549Z,34.47
2019-01-21T15:32:20.370Z,35.10
2019-01-21T15:34:59.571Z,35.00
2019-01-21T15:37:55.171Z,53.83
2019-01-21T15:40:59.189Z,48.33
2019-01-21T15:43:45.630Z,37.80
2019-01-21T15:46:24.292Z,35.30
2019-01-21T15:49:02.918Z,37.80
2019-01-21T15:51:40.111Z,37.60
2019-01-21T15:54:18.250Z,36.00
2019-01-21T15:57:05.835Z,37.80
2019-01-21T15:59:49.107Z,38.83
2019-01-21T16:02:32.613Z,37.13
2019-01-21T16:05:24.194Z,36.17
2019-01-21T16:07:57.631Z,34.80
2019-01-21T16:10:54.662Z,37.30
2019-01-21T16:13:37.268Z,37.27
2019-01-21T16:16:34.835Z,40.17
2019-01-21T16:19:09.432Z,36.87
2019-01-21T16:21:42.202Z,36.07
2019-01-21T16:24:36.185Z,53.90
2019-01-21T16:27:12.607Z,35.60
2019-01-21T16:30:01.727Z,36.83
2019-01-21T16:32:34.632Z,38.23
2019-01-21T16:35:30.925Z,36.60
2019-01-21T16:38:08.017Z,36.77
2019-01-21T16:40:43.512Z,33.50
2019-01-21T16:43:15.038Z,31.10
2019-01-21T16:45:47.100Z,35.73
2019-01-21T16:48:16.931Z,41.60
2019-01-21T16:50:48.380Z,43.23
2019-01-21T16:53:21.281Z,41.97
2019-01-21T16:55:52.701Z,43.37
2019-01-21T16:58:22.708Z,48.00
2019-01-21T17:00:53.526Z,47.17
2019-01-21T17:03:24.991Z,37.33
2019-01-21T17:05:54.819Z,37.30
2019-01-21T17:08:24.858Z,39.20
2019-01-21T17:10:54.753Z,37.80
2019-01-21T17:13:24.553Z,40.27
2019-01-21T17:15:54.341Z,42.90
2019-01-21T17:18:24.151Z,42.70
2019-01-21T17:20:54.525Z,44.53
2019-01-21T17:23:25.357Z,41.57
2019-01-21T17:25:55.075Z,60.13
2019-01-21T17:28:24.916Z,48.27
2019-01-21T17:30:57.104Z,40.63
2019-01-21T17:33:27.074Z,42.77
2019-01-21T17:35:56.932Z,39.77
2019-01-21T17:38:26.795Z,38.40
2019-01-21T17:40:57.943Z,39.67
2019-01-21T17:43:27.794Z,39.93
2019-01-21T17:45:57.633Z,38.63
2019-01-21T17:48:30.266Z,40.40
2019-01-21T17:51:05.174Z,36.80
2019-01-21T17:53:34.874Z,41.53
2019-01-21T17:56:05.064Z,42.23
2019-01-21T17:58:40.174Z,39.80
2019-01-21T18:01:09.993Z,40.50
2019-01-21T18:03:44.062Z,39.63
2019-01-21T18:06:14.793Z,43.37
2019-01-21T18:08:44.767Z,40.43
2019-01-21T18:11:14.717Z,39.20
2019-01-21T18:13:46.275Z,38.03
2019-01-21T18:16:16.753Z,38.17
2019-01-21T18:18:46.547Z,39.40
2019-01-21T18:21:16.353Z,40.60
2019-01-21T18:23:46.571Z,44.30
2019-01-21T18:26:18.331Z,39.47
2019-01-21T18:28:48.153Z,37.73
2019-01-21T18:31:19.082Z,40.30
2019-01-21T18:33:50.013Z,60.00
2019-01-21T18:36:21.334Z,45.30
2019-01-21T18:38:52.764Z,42.13
2019-01-21T18:41:22.974Z,43.27
2019-01-21T18:43:55.868Z,43.43
2019-01-21T18:46:26.573Z,55.40
2019-01-21T18:48:58.907Z,50.87
2019-01-21T18:51:28.758Z,44.67
2019-01-21T18:53:58.572Z,41.57
2019-01-21T18:56:28.432Z,38.20
2019-01-21T18:58:58.741Z,36.73
2019-01-21T19:01:28.580Z,37.73
2019-01-21T19:03:59.309Z,38.67
2019-01-21T19:06:29.508Z,43.90
2019-01-21T19:08:59.281Z,40.67
2019-01-21T19:11:29.108Z,39.60
2019-01-21T19:13:58.904Z,38.77
2019-01-21T19:16:28.754Z,40.13
2019-01-21T19:18:58.527Z,38.73
2019-01-21T19:21:28.338Z,38.57
2019-01-21T19:23:58.210Z,39.03
2019-01-21T19:26:28.003Z,37.73
2019-01-21T19:28:58.798Z,38.30
2019-01-21T19:31:30.120Z,40.63
2019-01-21T19:34:00.084Z,38.93
2019-01-21T19:36:29.945Z,38.13
2019-01-21T19:38:59.763Z,39.73
2019-01-21T19:41:29.705Z,40.70
2019-01-21T19:43:59.663Z,39.73
2019-01-21T19:46:29.425Z,39.23
2019-01-21T19:48:59.287Z,40.60
2019-01-21T19:51:29.877Z,42.70
2019-01-21T19:53:59.702Z,38.47
2019-01-21T19:56:29.677Z,39.43
2019-01-21T19:58:59.479Z,38.60
2019-01-21T20:01:30.929Z,39.50
2019-01-21T20:04:00.843Z,92.10
2019-01-21T20:06:30.959Z,102.67
2019-01-21T20:09:00.724Z,39.30
2019-01-21T20:11:34.840Z,38.27
2019-01-21T20:14:01.982Z,42.63
2019-01-21T20:16:31.838Z,40.67
2019-01-21T20:19:01.594Z,38.67
2019-01-21T20:21:31.424Z,43.53
2019-01-21T20:24:01.302Z,41.00
2019-01-21T20:26:32.668Z,34.33
2019-01-21T20:29:02.470Z,40.67
2019-01-21T20:31:32.184Z,39.00
2019-01-21T20:34:02.282Z,41.93
2019-01-21T20:36:32.066Z,42.80
2019-01-21T20:39:01.902Z,39.57
2019-01-21T20:41:32.004Z,41.57
2019-01-21T20:44:01.764Z,38.67
2019-01-21T20:46:31.787Z,40.77
2019-01-21T20:49:01.603Z,38.70
2019-01-21T20:51:31.522Z,40.70
2019-01-21T20:54:01.457Z,42.80
2019-01-21T20:56:31.224Z,41.07
2019-01-21T20:59:01.004Z,45.43
2019-01-21T21:01:30.843Z,42.07
2019-01-21T21:04:00.823Z,47.60
2019-01-21T21:06:31.705Z,43.73
2019-01-21T21:09:02.437Z,45.60
2019-01-21T21:11:31.947Z,43.67
2019-01-21T21:14:01.603Z,42.10
2019-01-21T21:16:31.425Z,41.17
2019-01-21T21:19:01.244Z,38.53
2019-01-21T21:21:31.050Z,41.97
2019-01-21T21:24:00.689Z,40.43
2019-01-21T21:26:30.318Z,38.27
2019-01-21T21:29:00.144Z,39.60
2019-01-21T21:31:31.420Z,43.67
2019-01-21T21:34:01.267Z,40.17
2019-01-21T21:36:31.213Z,43.00
2019-01-21T21:39:01.883Z,42.80
2019-01-21T21:44:30.712Z,41.60
2019-01-21T21:47:00.644Z,39.27
2019-01-21T21:49:30.465Z,43.40
2019-01-21T21:52:00.358Z,40.80
2019-01-21T21:54:30.284Z,40.00
2019-01-21T21:57:04.842Z,42.67
2019-01-21T21:59:36.491Z,41.73
2019-01-21T22:02:07.516Z,48.93
2019-01-21T22:04:46.453Z,47.17
2019-01-21T22:07:28.260Z,41.93
2019-01-21T22:09:57.964Z,46.53
2019-01-21T22:12:27.785Z,49.87
2019-01-21T22:14:57.643Z,47.07
2019-01-21T22:17:27.462Z,46.80
2019-01-21T22:19:57.166Z,48.97
2019-01-21T22:22:34.724Z,62.00
2019-01-21T22:25:00.913Z,58.23
2019-01-21T22:27:30.704Z,52.23
2019-01-21T22:30:00.536Z,52.87
2019-01-21T22:32:30.413Z,52.23
2019-01-21T22:35:00.208Z,52.47
2019-01-21T22:37:29.791Z,51.33
2019-01-21T22:39:59.613Z,49.37
2019-01-21T22:42:29.455Z,55.40
2019-01-21T22:44:59.102Z,55.37
2019-01-21T22:47:28.733Z,55.63
2019-01-21T22:49:58.504Z,56.00
2019-01-21T22:52:28.515Z,55.60
2019-01-21T22:54:58.547Z,58.27
2019-01-21T22:57:28.879Z,56.50
2019-01-21T22:59:59.003Z,57.43
2019-01-21T23:02:28.782Z,56.80
2019-01-21T23:04:58.904Z,57.20
2019-01-21T23:07:28.685Z,53.53
2019-01-21T23:09:58.464Z,57.67
2019-01-21T23:12:28.286Z,55.50
2019-01-21T23:14:57.944Z,55.20
2019-01-21T23:17:27.911Z,54.17
2019-01-21T23:19:57.685Z,54.60
2019-01-21T23:22:27.424Z,53.43
2019-01-21T23:24:57.123Z,50.17
2019-01-21T23:27:26.865Z,51.07
2019-01-21T23:29:57.065Z,52.47
2019-01-21T23:32:27.665Z,52.40
2019-01-21T23:34:57.484Z,53.50
2019-01-21T23:37:27.164Z,52.60
2019-01-21T23:39:56.907Z,50.37
2019-01-21T23:42:27.029Z,57.20
2019-01-21T23:44:56.724Z,48.40
2019-01-21T23:47:26.347Z,52.77
2019-01-21T23:49:56.828Z,50.37
2019-01-21T23:52:26.494Z,51.10
2019-01-21T23:54:56.596Z,49.03
2019-01-21T23:57:26.567Z,49.37
2019-01-21T23:59:56.353Z,45.63
